Time;durP1;ratioP1;P1;durP2;ratioP2;P2;SDS_P1;SDS_P2;PMS_P1;PMS_P2;Temp;Humidity;BMP_temperature;BMP_pressure;BME280_temperature;BME280_humidity;BME280_pressure;Samples;Min_cycle;Max_cycle;Signal;HPM_P1;HPM_P2
2022/07/05 00:01:03;;;;;;;1.70;0.93;;;20.80;80.20;;;;;;5094027;28;20028;-67
2022/07/05 00:03:29;;;;;;;2.60;0.90;;;20.80;80.70;;;;;;5094051;28;20036;-67
2022/07/05 00:05:56;;;;;;;1.45;0.90;;;20.80;81.00;;;;;;5094236;28;20016;-67
2022/07/05 00:08:21;;;;;;;2.58;0.80;;;20.70;80.80;;;;;;5094082;28;20028;-68
2022/07/05 00:10:47;;;;;;;5.97;1.23;;;20.70;81.00;;;;;;5094068;28;20089;-68
2022/07/05 00:13:14;;;;;;;5.68;1.08;;;20.70;80.80;;;;;;5094054;28;20130;-67
2022/07/05 00:15:40;;;;;;;2.08;1.17;;;20.60;80.80;;;;;;5094264;28;20031;-68
2022/07/05 00:18:06;;;;;;;2.53;1.10;;;20.60;81.00;;;;;;5093804;28;20042;-68
2022/07/05 00:20:32;;;;;;;5.95;1.05;;;20.40;81.00;;;;;;5094039;28;20041;-68
2022/07/05 00:22:57;;;;;;;2.85;1.15;;;20.30;81.30;;;;;;5093766;28;20495;-67
2022/07/05 00:25:23;;;;;;;3.50;1.00;;;20.40;81.40;;;;;;5092653;28;20480;-68
2022/07/05 00:27:48;;;;;;;2.70;1.30;;;20.40;81.50;;;;;;5094839;28;20023;-67
2022/07/05 00:30:14;;;;;;;2.20;1.02;;;20.40;81.20;;;;;;5093647;28;20023;-68
2022/07/05 00:32:40;;;;;;;2.45;0.90;;;20.40;81.10;;;;;;5093474;28;20485;-67
2022/07/05 00:35:07;;;;;;;1.48;0.85;;;20.40;81.30;;;;;;5094310;28;20035;-67
2022/07/05 00:37:33;;;;;;;2.75;0.93;;;20.30;81.50;;;;;;5093356;28;20032;-68
2022/07/05 00:39:59;;;;;;;5.40;1.13;;;20.30;81.40;;;;;;5093660;28;20031;-68
2022/07/05 00:42:25;;;;;;;2.90;0.82;;;20.30;81.30;;;;;;5093449;28;20085;-68
2022/07/05 00:44:51;;;;;;;2.85;0.73;;;20.30;81.40;;;;;;5093493;28;20081;-68
2022/07/05 00:47:17;;;;;;;3.10;1.00;;;20.20;81.60;;;;;;5093512;28;20032;-68
2022/07/05 00:49:43;;;;;;;6.63;1.10;;;20.20;81.70;;;;;;5093217;28;20032;-67
2022/07/05 00:52:10;;;;;;;1.33;0.93;;;20.20;82.00;;;;;;5093764;28;20053;-68
2022/07/05 00:54:37;;;;;;;2.78;1.15;;;20.10;82.30;;;;;;5093287;28;20036;-68
2022/07/05 00:57:03;;;;;;;2.65;1.30;;;20.10;82.50;;;;;;5093473;28;20060;-68
2022/07/05 00:59:29;;;;;;;;;;;20.10;82.90;;;;;;5092408;28;20028;-68
2022/07/05 01:01:55;;;;;;;4.35;1.38;;;20.10;83.10;;;;;;5093212;28;19908;-67
2022/07/05 01:04:21;;;;;;;;;;;20.10;83.20;;;;;;5092352;28;20020;-68
2022/07/05 01:06:49;;;;;;;2.70;1.10;;;20.20;82.90;;;;;;5093437;28;19907;-67
2022/07/05 01:09:16;;;;;;;2.95;0.90;;;20.20;82.90;;;;;;5094537;28;20024;-68
2022/07/05 01:11:47;;;;;;;2.85;1.00;;;20.20;82.90;;;;;;5097839;28;20397;-68
2022/07/05 01:14:18;;;;;;;3.22;1.08;;;20.20;83.40;;;;;;5097285;28;20028;-67
2022/07/05 01:16:44;;;;;;;3.00;1.00;;;20.20;82.80;;;;;;5097508;28;20335;-68
2022/07/05 01:19:13;;;;;;;5.38;1.65;;;20.10;84.70;;;;;;5097213;28;20020;-68
2022/07/05 01:21:44;;;;;;;1.77;1.33;;;20.10;86.50;;;;;;5097267;28;20111;-68
2022/07/05 01:24:11;;;;;;;1.95;1.20;;;20.00;87.70;;;;;;5097099;28;20042;-67
2022/07/05 01:26:38;;;;;;;3.33;1.27;;;20.00;88.10;;;;;;5095940;28;20081;-68
2022/07/05 01:29:04;;;;;;;2.53;1.30;;;19.90;89.40;;;;;;5096931;28;20057;-68
2022/07/05 01:31:30;;;;;;;5.05;1.70;;;19.80;90.20;;;;;;5097693;28;20573;-68
2022/07/05 01:33:55;;;;;;;6.22;1.60;;;19.70;90.40;;;;;;5097029;28;20063;-67
2022/07/05 01:36:21;;;;;;;2.97;1.45;;;19.60;90.30;;;;;;5095805;28;20019;-66
2022/07/05 01:38:47;;;;;;;6.30;1.77;;;19.50;90.20;;;;;;5096966;28;20108;-68
2022/07/05 01:41:12;;;;;;;6.20;1.52;;;19.60;90.10;;;;;;5096951;28;20108;-68
2022/07/05 01:43:39;;;;;;;6.25;1.65;;;19.60;90.10;;;;;;5096570;28;20028;-67
2022/07/05 01:46:05;;;;;;;5.38;1.63;;;19.50;90.20;;;;;;5095517;28;20028;-68
2022/07/05 01:48:34;;;;;;;2.70;1.42;;;19.50;90.10;;;;;;5097003;28;20099;-66
2022/07/05 01:51:22;;;;;;;5.35;1.40;;;19.50;90.20;;;;;;5096944;28;20027;-68
2022/07/05 01:53:51;;;;;;;5.40;1.45;;;19.60;90.30;;;;;;5097116;28;20020;-68
2022/07/05 01:56:17;;;;;;;4.43;1.98;;;19.60;90.40;;;;;;5096052;28;20023;-69
2022/07/05 01:58:44;;;;;;;3.40;1.48;;;19.50;90.90;;;;;;5094764;28;20042;-68
2022/07/05 02:01:09;;;;;;;5.60;1.73;;;19.30;91.20;;;;;;5096612;28;20022;-63
2022/07/05 02:03:36;;;;;;;3.63;1.58;;;19.20;91.80;;;;;;5095415;28;20457;-65
2022/07/05 02:06:01;;;;;;;5.20;1.80;;;19.20;92.40;;;;;;5096560;28;20035;-65
2022/07/05 02:08:30;;;;;;;4.80;2.10;;;19.20;92.80;;;;;;5096200;28;20419;-65
2022/07/05 02:10:56;;;;;;;2.90;1.60;;;19.10;93.10;;;;;;5096496;28;20029;-64
2022/07/05 02:13:22;;;;;;;4.13;1.77;;;19.10;93.50;;;;;;5096329;28;20046;-64
2022/07/05 02:15:48;;;;;;;5.50;1.73;;;19.00;94.00;;;;;;5097010;28;20480;-64
2022/07/05 02:18:13;;;;;;;6.18;1.77;;;19.00;94.20;;;;;;5097473;28;20028;-63
2022/07/05 02:20:40;;;;;;;4.35;1.63;;;19.10;94.20;;;;;;5096371;28;20132;-63
2022/07/05 02:23:06;;;;;;;2.60;1.23;;;19.00;94.40;;;;;;5096944;28;20488;-64
2022/07/05 02:25:32;;;;;;;2.35;1.38;;;18.90;94.80;;;;;;5096226;28;20020;-63
2022/07/05 02:27:58;;;;;;;3.58;1.35;;;18.80;95.00;;;;;;5096048;28;20028;-64
2022/07/05 02:30:24;;;;;;;3.80;1.30;;;18.70;95.40;;;;;;5096017;28;20032;-64
2022/07/05 02:32:49;;;;;;;3.10;1.50;;;18.60;95.80;;;;;;5095968;28;20028;-64
2022/07/05 02:35:15;;;;;;;3.67;1.45;;;18.60;96.30;;;;;;5095053;28;20557;-66
2022/07/05 02:37:41;;;;;;;4.75;1.73;;;18.50;96.50;;;;;;5094514;28;20135;-65
2022/07/05 02:40:08;;;;;;;3.22;1.40;;;18.60;96.80;;;;;;5095686;28;20028;-67
2022/07/05 02:42:34;;;;;;;2.80;1.38;;;18.50;97.00;;;;;;5092841;28;20052;-66
2022/07/05 02:44:59;;;;;;;1.60;1.10;;;18.50;97.40;;;;;;5093599;28;20094;-66
2022/07/05 02:47:25;;;;;;;2.30;1.30;;;18.50;97.70;;;;;;5093410;28;20048;-65
2022/07/05 02:49:51;;;;;;;4.35;1.50;;;18.40;98.00;;;;;;5093460;28;20555;-64
2022/07/05 02:52:17;;;;;;;4.43;1.55;;;18.40;98.30;;;;;;5093327;28;20086;-67
2022/07/05 02:54:43;;;;;;;2.67;1.40;;;18.40;98.70;;;;;;5093440;28;20440;-67
2022/07/05 02:57:08;;;;;;;3.92;1.67;;;18.40;98.90;;;;;;5093935;28;20442;-67
2022/07/05 02:59:34;;;;;;;2.53;1.30;;;18.40;99.10;;;;;;5095577;28;20024;-65
2022/07/05 03:01:59;;;;;;;3.17;1.20;;;18.40;99.30;;;;;;5095200;28;20135;-66
2022/07/05 03:04:25;;;;;;;7.70;1.60;;;18.40;99.50;;;;;;5095619;28;20472;-65
2022/07/05 03:06:50;;;;;;;2.60;1.60;;;18.40;99.80;;;;;;5095837;28;20511;-65
2022/07/05 03:09:16;;;;;;;2.35;1.40;;;18.40;99.90;;;;;;5096273;28;20052;-66
2022/07/05 03:11:41;;;;;;;2.50;1.60;;;18.40;99.90;;;;;;5097573;28;20020;-65
2022/07/05 03:14:07;;;;;;;3.05;1.30;;;18.40;99.90;;;;;;5102873;28;20155;-66
2022/07/05 03:16:33;;;;;;;2.50;1.45;;;18.40;99.90;;;;;;5107723;28;20567;-66
2022/07/05 03:18:59;;;;;;;5.80;1.50;;;18.40;99.90;;;;;;5104526;28;20380;-66
2022/07/05 03:21:24;;;;;;;2.63;1.50;;;18.40;99.90;;;;;;5096414;28;20021;-66
2022/07/05 03:23:50;;;;;;;3.55;1.35;;;18.40;99.90;;;;;;5094766;28;20103;-65
2022/07/05 03:26:15;;;;;;;5.75;1.73;;;18.40;99.90;;;;;;5095295;28;20044;-65
2022/07/05 03:28:41;;;;;;;3.72;1.48;;;18.40;99.90;;;;;;5094821;28;20028;-64
2022/07/05 03:31:06;;;;;;;2.55;1.30;;;18.40;99.90;;;;;;5094971;28;20024;-66
2022/07/05 03:33:32;;;;;;;3.72;1.23;;;18.40;99.90;;;;;;5094525;28;20127;-67
2022/07/05 03:35:58;;;;;;;4.25;1.33;;;18.40;99.90;;;;;;5094614;28;20059;-66
2022/07/05 03:38:23;;;;;;;3.33;1.80;;;18.40;99.90;;;;;;5094877;28;20074;-66
2022/07/05 03:40:49;;;;;;;2.13;1.05;;;18.40;99.90;;;;;;5094741;28;20028;-66
2022/07/05 03:43:15;;;;;;;4.35;1.33;;;18.40;99.90;;;;;;5094417;28;20032;-65
2022/07/05 03:45:40;;;;;;;3.28;1.20;;;18.40;98.30;;;;;;5094894;28;20016;-66
2022/07/05 03:48:06;;;;;;;2.20;1.27;;;18.40;98.80;;;;;;5094676;28;20157;-66
2022/07/05 03:50:32;;;;;;;4.20;1.20;;;18.40;98.00;;;;;;5094380;28;20028;-66
2022/07/05 03:52:57;;;;;;;1.50;1.25;;;18.40;96.70;;;;;;5094400;28;20493;-66
2022/07/05 03:55:23;;;;;;;3.90;2.03;;;18.40;99.10;;;;;;5096290;28;20032;-65
2022/07/05 03:57:48;;;;;;;3.35;1.42;;;18.40;99.10;;;;;;5096422;28;20596;-64
2022/07/05 04:00:14;;;;;;;2.97;1.10;;;18.50;97.50;;;;;;5095283;28;20032;-65
2022/07/05 04:02:41;;;;;;;;;;;18.50;96.40;;;;;;5094859;28;20274;-64
2022/07/05 04:05:06;;;;;;;4.43;1.20;;;18.50;96.30;;;;;;5094279;28;20341;-65
2022/07/05 04:07:33;;;;;;;1.63;1.30;;;18.60;96.20;;;;;;5094358;28;20024;-66
2022/07/05 04:09:59;;;;;;;3.22;1.65;;;18.60;97.40;;;;;;5094640;28;20020;-66
2022/07/05 04:12:24;;;;;;;4.30;1.38;;;18.60;99.90;;;;;;5093262;28;20035;-66
2022/07/05 04:14:50;;;;;;;4.60;1.70;;;18.50;99.90;;;;;;5093678;28;20035;-64
2022/07/05 04:17:16;;;;;;;2.13;1.40;;;18.50;99.90;;;;;;5093848;28;20024;-63
2022/07/05 04:19:41;;;;;;;6.22;1.60;;;18.50;99.90;;;;;;5092523;28;20028;-64
2022/07/05 04:22:07;;;;;;;4.88;1.60;;;18.50;99.90;;;;;;5094126;28;20380;-64
2022/07/05 04:25:16;;;;;;;2.67;1.55;;;18.40;99.90;;;;;;5093866;28;20032;-64
2022/07/05 04:27:18;;;;;;;3.40;1.42;;;18.40;99.90;;;;;;5093813;28;20024;-67
2022/07/05 04:29:43;;;;;;;4.50;1.60;;;18.40;99.90;;;;;;5092654;28;20022;-64
2022/07/05 04:32:09;;;;;;;5.75;1.90;;;18.30;99.90;;;;;;5093683;28;20031;-65
2022/07/05 04:34:34;;;;;;;6.53;1.80;;;18.20;99.90;;;;;;5093981;28;20035;-67
2022/07/05 04:37:00;;;;;;;5.97;1.88;;;18.20;99.90;;;;;;5092633;28;20327;-67
2022/07/05 04:39:25;;;;;;;3.47;1.70;;;18.10;99.90;;;;;;5093687;28;20397;-64
2022/07/05 04:41:51;;;;;;;4.60;1.80;;;18.00;99.90;;;;;;5093884;28;20476;-67
2022/07/05 04:44:16;;;;;;;5.82;1.70;;;18.00;99.90;;;;;;5092806;28;20028;-65
2022/07/05 04:46:42;;;;;;;7.88;2.15;;;18.00;99.90;;;;;;5093667;28;20020;-65
2022/07/05 04:49:07;;;;;;;4.32;1.70;;;18.00;99.90;;;;;;5093616;28;20086;-66
2022/07/05 04:51:33;;;;;;;5.82;1.85;;;18.00;99.90;;;;;;5093690;28;20077;-64
2022/07/05 04:53:58;;;;;;;9.45;2.10;;;18.00;99.90;;;;;;5093819;28;20372;-64
2022/07/05 04:56:24;;;;;;;4.38;2.58;;;18.00;99.90;;;;;;5093313;28;20028;-66
2022/07/05 04:58:50;;;;;;;4.30;1.75;;;18.00;99.90;;;;;;5093600;28;20039;-65
2022/07/05 05:01:15;;;;;;;3.00;1.85;;;18.00;99.90;;;;;;5093268;28;20020;-65
2022/07/05 05:03:41;;;;;;;2.55;1.88;;;17.90;99.90;;;;;;5093172;28;20032;-67
2022/07/05 05:06:06;;;;;;;5.63;1.90;;;18.00;99.90;;;;;;5093651;28;20094;-64
2022/07/05 05:08:32;;;;;;;3.35;1.90;;;18.00;99.90;;;;;;5093208;28;20026;-65
2022/07/05 05:10:57;;;;;;;5.20;1.85;;;18.10;99.90;;;;;;5093281;28;20024;-64
2022/07/05 05:13:23;;;;;;;5.55;1.80;;;18.10;99.90;;;;;;5093501;28;20024;-65
2022/07/05 05:15:48;;;;;;;2.20;1.63;;;18.10;99.90;;;;;;5092114;28;20016;-66
2022/07/05 05:18:15;;;;;;;3.75;1.40;;;18.10;99.90;;;;;;5093871;28;20032;-64
2022/07/05 05:20:40;;;;;;;3.75;1.50;;;18.10;99.90;;;;;;5093930;28;20243;-62
2022/07/05 05:23:06;;;;;;;3.03;1.60;;;18.10;99.90;;;;;;5093061;28;20111;-61
2022/07/05 05:25:31;;;;;;;4.35;1.80;;;18.10;99.90;;;;;;5093094;28;20028;-60
2022/07/05 05:27:57;;;;;;;2.63;1.42;;;18.10;99.90;;;;;;5093073;28;20072;-60
2022/07/05 05:30:23;;;;;;;3.33;1.67;;;18.20;99.90;;;;;;5093194;28;20020;-63
2022/07/05 05:32:48;;;;;;;2.92;1.80;;;18.20;99.90;;;;;;5093050;28;20469;-63
2022/07/05 05:35:16;;;;;;;4.60;2.23;;;18.30;99.90;;;;;;5092969;28;20044;-61
2022/07/05 05:37:52;;;;;;;3.67;1.52;;;18.30;99.90;;;;;;5093169;28;20273;-62
2022/07/05 05:40:19;;;;;;;4.00;1.50;;;18.40;99.90;;;;;;5093322;28;20043;-61
2022/07/05 05:42:44;;;;;;;4.65;1.85;;;18.50;99.90;;;;;;5092518;28;20024;-61
2022/07/05 05:45:10;;;;;;;3.85;1.42;;;18.50;99.90;;;;;;5091214;28;20038;-65
2022/07/05 05:48:02;;;;;;;3.80;1.85;;;18.60;99.90;;;;;;5093062;28;20510;-65
2022/07/05 05:50:36;;;;;;;3.25;1.40;;;18.70;99.90;;;;;;5091019;28;20032;-65
2022/07/05 05:53:02;;;;;;;7.05;1.95;;;18.70;99.90;;;;;;5093236;28;20024;-65
2022/07/05 05:55:30;;;;;;;3.85;1.40;;;18.80;99.90;;;;;;5093764;28;20121;-64
2022/07/05 05:57:57;;;;;;;1.95;1.13;;;19.00;99.90;;;;;;5096177;28;20081;-65
2022/07/05 06:00:24;;;;;;;3.60;1.20;;;19.10;99.90;;;;;;5094564;28;20031;-64
2022/07/05 06:02:50;;;;;;;2.55;1.33;;;19.10;99.90;;;;;;5094643;28;20032;-64
2022/07/05 06:05:17;;;;;;;3.45;1.70;;;19.20;99.90;;;;;;5096790;28;20406;-65
2022/07/05 06:07:51;;;;;;;10.57;2.30;;;19.20;99.90;;;;;;5096458;28;20024;-65
2022/07/05 06:10:28;;;;;;;3.47;1.80;;;19.20;99.90;;;;;;5096281;28;20019;-65
2022/07/05 06:12:57;;;;;;;4.18;2.20;;;19.20;99.90;;;;;;5094975;28;20035;-65
2022/07/05 06:15:22;;;;;;;3.03;1.70;;;19.20;99.90;;;;;;5096282;28;20028;-64
2022/07/05 06:17:48;;;;;;;5.97;1.90;;;19.30;99.90;;;;;;5096106;28;20397;-65
2022/07/05 06:20:17;;;;;;;3.40;2.15;;;19.30;99.90;;;;;;5096252;28;20032;-66
2022/07/05 06:22:43;;;;;;;5.50;1.80;;;19.40;99.90;;;;;;5095779;28;20030;-64
2022/07/05 06:25:08;;;;;;;3.78;1.63;;;19.50;99.90;;;;;;5096291;28;20017;-65
2022/07/05 06:27:45;;;;;;;5.55;1.65;;;19.50;99.90;;;;;;5096149;28;20069;-65
2022/07/05 06:30:14;;;;;;;5.25;1.50;;;19.50;99.90;;;;;;5096014;28;20107;-64
2022/07/05 06:32:40;;;;;;;4.15;1.75;;;19.60;99.60;;;;;;5096246;28;20020;-65
2022/07/05 06:35:07;;;;;;;5.80;1.98;;;19.70;99.80;;;;;;5095932;28;20032;-64
2022/07/05 06:37:52;;;;;;;6.50;2.15;;;19.70;99.90;;;;;;5096165;28;20028;-65
2022/07/05 06:40:24;;;;;;;3.08;1.63;;;19.80;99.70;;;;;;5097493;28;20065;-65
2022/07/05 06:42:51;;;;;;;3.25;1.60;;;19.90;99.30;;;;;;5097872;28;20081;-65
2022/07/05 06:45:17;;;;;;;5.53;2.08;;;19.90;98.70;;;;;;5097321;28;20461;-64
2022/07/05 06:47:43;;;;;;;3.55;1.98;;;20.00;98.70;;;;;;5096417;28;20035;-65
2022/07/05 06:50:10;;;;;;;4.90;1.75;;;20.00;98.80;;;;;;5096008;28;20023;-66
2022/07/05 06:52:36;;;;;;;4.18;1.60;;;20.20;98.30;;;;;;5095771;28;20048;-65
2022/07/05 06:55:02;;;;;;;2.45;1.60;;;20.30;98.40;;;;;;5095577;28;20066;-64
2022/07/05 06:57:27;;;;;;;;;;;20.30;98.00;;;;;;5095927;28;20032;-65
2022/07/05 06:59:53;;;;;;;2.67;1.65;;;20.40;97.50;;;;;;5095347;28;19915;-63
2022/07/05 07:02:19;;;;;;;4.50;1.65;;;20.40;97.20;;;;;;5095665;28;20063;-65
2022/07/05 07:04:45;;;;;;;6.72;1.80;;;20.40;97.20;;;;;;5095536;28;20458;-65
2022/07/05 07:09:57;;;;;;;5.47;1.65;;;20.50;96.70;;;;;;5096825;28;20384;-65
2022/07/05 07:12:23;;;;;;;3.65;1.63;;;20.50;96.40;;;;;;5096242;28;20423;-65
2022/07/05 07:14:48;;;;;;;4.32;2.00;;;20.60;96.20;;;;;;5095121;28;20069;-66
2022/07/05 07:17:14;;;;;;;3.15;1.60;;;20.80;96.10;;;;;;5094884;28;20036;-65
2022/07/05 07:19:39;;;;;;;7.57;1.80;;;20.90;96.00;;;;;;5094790;28;20023;-65
2022/07/05 07:22:05;;;;;;;5.70;2.00;;;20.90;95.70;;;;;;5094688;28;20042;-63
2022/07/05 07:24:30;;;;;;;5.18;1.40;;;21.00;94.70;;;;;;5094484;28;20106;-63
2022/07/05 07:27:06;;;;;;;8.50;1.42;;;21.10;94.60;;;;;;5095153;28;20056;-65
2022/07/05 07:29:32;;;;;;;3.05;1.55;;;21.20;94.50;;;;;;5094789;28;20027;-65
2022/07/05 07:31:59;;;;;;;6.05;1.40;;;21.30;93.80;;;;;;5094444;28;20031;-65
2022/07/05 07:34:26;;;;;;;5.30;1.67;;;21.40;94.00;;;;;;5094213;28;20024;-65
2022/07/05 07:36:52;;;;;;;2.72;1.30;;;21.50;93.80;;;;;;5094722;28;20027;-64
2022/07/05 07:39:18;;;;;;;4.57;1.90;;;21.60;93.40;;;;;;5094851;28;20031;-66
2022/07/05 07:41:44;;;;;;;4.15;1.30;;;21.70;93.30;;;;;;5094263;28;20392;-65
2022/07/05 07:44:09;;;;;;;9.10;1.98;;;21.70;93.40;;;;;;5094241;28;20028;-65
2022/07/05 07:46:36;;;;;;;2.15;1.20;;;21.80;93.20;;;;;;5094311;28;20425;-64
2022/07/05 07:49:02;;;;;;;7.22;1.75;;;22.00;92.70;;;;;;5094604;28;20543;-64
2022/07/05 07:51:29;;;;;;;;;;;23.00;91.60;;;;;;5094640;28;20016;-65
2022/07/05 07:53:54;;;;;;;6.85;1.35;;;24.10;89.10;;;;;;5093980;28;19933;-65
2022/07/05 07:56:20;;;;;;;;;;;24.70;88.40;;;;;;5092966;28;20032;-64
2022/07/05 07:58:47;;;;;;;6.18;1.63;;;25.00;87.30;;;;;;5094032;28;19927;-65
2022/07/05 08:01:13;;;;;;;5.32;1.85;;;25.00;86.10;;;;;;5093878;28;20028;-65
2022/07/05 08:03:39;;;;;;;2.60;1.58;;;24.90;85.90;;;;;;5093783;28;20465;-65
2022/07/05 08:06:05;;;;;;;4.15;1.40;;;24.70;85.60;;;;;;5093779;28;20034;-66
2022/07/05 08:08:30;;;;;;;;;;;24.50;86.20;;;;;;5094190;28;20027;-64
2022/07/05 08:10:56;;;;;;;2.55;1.33;;;24.60;85.70;;;;;;5093780;28;19904;-64
2022/07/05 08:13:21;;;;;;;;;;;25.10;84.80;;;;;;5094122;28;20081;-64
2022/07/05 08:15:47;;;;;;;4.63;1.40;;;26.50;82.50;;;;;;5093901;28;19910;-65
2022/07/05 08:23:42;;;;;;;2.97;1.30;;;32.00;68.10;;;;;;5093272;28;20281;-65
2022/07/05 08:26:08;;;;;;;2.70;1.10;;;33.80;64.10;;;;;;5093589;28;20021;-66
2022/07/05 08:28:33;;;;;;;7.45;1.30;;;35.10;60.30;;;;;;5093355;28;20012;-66
2022/07/05 08:30:59;;;;;;;6.70;1.30;;;36.10;57.40;;;;;;5093393;28;20016;-65
2022/07/05 08:33:24;;;;;;;3.67;0.82;;;35.80;56.10;;;;;;5093244;28;20492;-66
2022/07/05 08:35:50;;;;;;;2.80;1.10;;;35.60;56.10;;;;;;5093712;28;20027;-65
2022/07/05 08:38:15;;;;;;;3.30;1.00;;;36.30;55.00;;;;;;5093113;28;20020;-65
2022/07/05 08:40:46;;;;;;;2.13;0.90;;;37.20;54.20;;;;;;5092966;28;20032;-65
2022/07/05 08:43:14;;;;;;;4.32;1.20;;;37.30;53.40;;;;;;5093087;28;20068;-65
2022/07/05 08:45:43;;;;;;;3.08;1.67;;;37.80;52.80;;;;;;5093088;28;20032;-65
2022/07/05 08:48:09;;;;;;;3.70;1.17;;;38.40;51.90;;;;;;5093396;28;20027;-65
2022/07/05 08:50:39;;;;;;;3.90;1.30;;;38.90;51.00;;;;;;5093646;28;20354;-65
2022/07/05 08:53:05;;;;;;;2.47;1.30;;;39.90;50.50;;;;;;5093119;28;20024;-65
2022/07/05 08:55:34;;;;;;;4.20;1.30;;;40.80;49.50;;;;;;5093708;28;20035;-66
2022/07/05 08:58:00;;;;;;;4.07;1.40;;;41.10;48.30;;;;;;5093186;28;20085;-66
2022/07/05 09:00:26;;;;;;;2.17;1.20;;;41.00;48.40;;;;;;5093284;28;20028;-65
2022/07/05 09:02:53;;;;;;;3.10;1.30;;;40.60;48.00;;;;;;5091508;28;20459;-65
2022/07/05 09:05:20;;;;;;;4.13;1.10;;;40.60;47.70;;;;;;5093286;28;20380;-64
2022/07/05 09:07:58;;;;;;;3.58;1.60;;;40.00;47.70;;;;;;5093133;28;20097;-65
2022/07/05 09:10:26;;;;;;;3.65;1.10;;;40.00;48.00;;;;;;5093638;28;20377;-65
2022/07/05 09:12:53;;;;;;;3.80;1.08;;;40.60;48.00;;;;;;5093119;28;20028;-65
2022/07/05 09:15:19;;;;;;;2.10;1.40;;;40.10;47.20;;;;;;5093052;28;20039;-65
2022/07/05 09:17:45;;;;;;;4.43;1.40;;;39.80;48.00;;;;;;5091719;28;20028;-66
2022/07/05 09:20:16;;;;;;;4.90;1.80;;;40.20;47.40;;;;;;5092877;28;20028;-65
2022/07/05 09:22:43;;;;;;;3.17;1.33;;;40.70;46.80;;;;;;5093181;28;20025;-65
2022/07/05 09:25:19;;;;;;;3.60;1.30;;;40.70;46.50;;;;;;5093250;28;20111;-66
2022/07/05 09:27:48;;;;;;;3.95;1.30;;;40.90;46.10;;;;;;5092768;28;20540;-65
2022/07/05 09:30:28;;;;;;;3.83;1.20;;;40.90;46.10;;;;;;5094240;28;20024;-65
2022/07/05 09:33:04;;;;;;;3.20;1.30;;;41.20;46.00;;;;;;5096721;28;20057;-66
2022/07/05 09:35:35;;;;;;;1.98;1.20;;;41.50;45.70;;;;;;5096930;28;20606;-66
2022/07/05 09:38:03;;;;;;;1.80;1.30;;;42.30;45.00;;;;;;5096719;28;20032;-66
2022/07/05 09:40:48;;;;;;;3.65;1.15;;;40.90;44.70;;;;;;5096796;28;20529;-65
2022/07/05 09:43:16;;;;;;;2.38;1.30;;;40.00;46.10;;;;;;5096694;28;20024;-66
2022/07/05 09:46:01;;;;;;;4.32;1.00;;;40.30;45.90;;;;;;5096800;28;20028;-65
2022/07/05 09:48:28;;;;;;;3.88;1.67;;;41.10;45.20;;;;;;5096466;28;20020;-66
2022/07/05 09:51:06;;;;;;;2.63;1.00;;;40.20;45.20;;;;;;5096629;28;20032;-65
2022/07/05 09:53:45;;;;;;;2.22;1.17;;;40.30;45.50;;;;;;5094965;28;20103;-66
2022/07/05 09:56:10;;;;;;;3.03;1.00;;;40.00;45.30;;;;;;5096771;28;20025;-65
2022/07/05 09:58:36;;;;;;;2.60;1.10;;;39.10;46.10;;;;;;5096369;28;20028;-65
2022/07/05 10:01:26;;;;;;;4.38;1.20;;;38.80;45.70;;;;;;5095465;28;20028;-65
2022/07/05 10:04:03;;;;;;;1.83;0.95;;;37.20;46.20;;;;;;5095753;28;20036;-65
2022/07/05 10:06:32;;;;;;;6.95;1.45;;;36.50;47.50;;;;;;5096563;28;20465;-65
2022/07/05 10:08:59;;;;;;;4.88;1.10;;;37.10;46.90;;;;;;5096154;28;20028;-66
2022/07/05 10:11:26;;;;;;;1.58;0.90;;;37.50;45.90;;;;;;5096172;28;20020;-65
2022/07/05 10:13:53;;;;;;;1.95;0.88;;;37.70;46.10;;;;;;5096141;28;20020;-65
2022/07/05 10:16:21;;;;;;;2.28;1.00;;;37.80;45.80;;;;;;5095950;28;20108;-65
2022/07/05 10:18:50;;;;;;;2.67;1.17;;;37.70;46.10;;;;;;5095881;28;20058;-65
2022/07/05 10:21:17;;;;;;;2.58;1.00;;;38.10;45.70;;;;;;5094661;28;20376;-65
2022/07/05 10:23:44;;;;;;;1.77;0.90;;;38.50;45.40;;;;;;5096001;28;20024;-65
2022/07/05 10:26:13;;;;;;;4.13;1.35;;;38.80;45.40;;;;;;5096503;28;20016;-65
2022/07/05 10:28:50;;;;;;;1.30;1.15;;;39.10;45.20;;;;;;5094593;28;20029;-65
2022/07/05 10:31:17;;;;;;;3.03;1.02;;;39.60;44.80;;;;;;5094412;28;20021;-65
2022/07/05 10:33:43;;;;;;;4.90;1.20;;;39.70;44.10;;;;;;5095658;28;20048;-66
2022/07/05 10:36:13;;;;;;;1.67;0.90;;;39.50;45.10;;;;;;5095848;28;20016;-66
2022/07/05 10:38:43;;;;;;;3.13;1.20;;;39.50;45.20;;;;;;5096168;28;20392;-66
2022/07/05 10:41:13;;;;;;;1.10;0.73;;;40.20;44.30;;;;;;5095120;28;20054;-65
2022/07/05 10:43:39;;;;;;;2.65;1.05;;;39.50;44.70;;;;;;5095300;28;20044;-65
2022/07/05 10:46:07;;;;;;;1.48;1.10;;;39.90;44.40;;;;;;5095467;28;20027;-65
2022/07/05 10:48:34;;;;;;;1.77;1.05;;;40.40;44.40;;;;;;5095603;28;20016;-65
2022/07/05 10:50:59;;;;;;;3.88;1.30;;;40.90;44.00;;;;;;5095389;28;20028;-65
2022/07/05 10:53:37;;;;;;;1.55;1.00;;;41.40;43.50;;;;;;5095469;28;20488;-64
2022/07/05 10:56:05;;;;;;;3.70;1.20;;;41.70;42.50;;;;;;5095676;28;20080;-66
2022/07/05 10:58:39;;;;;;;2.25;1.00;;;41.30;42.60;;;;;;5096313;28;20035;-65
2022/07/05 11:01:19;;;;;;;2.67;1.08;;;41.60;41.80;;;;;;5096105;28;20031;-65
2022/07/05 11:03:48;;;;;;;1.67;1.23;;;40.40;43.00;;;;;;5097041;28;20035;-65
2022/07/05 11:06:20;;;;;;;1.77;0.70;;;39.20;43.70;;;;;;5096660;28;20107;-65
2022/07/05 11:09:09;;;;;;;2.25;0.90;;;36.40;45.30;;;;;;5094438;28;20026;-65
2022/07/05 11:11:47;;;;;;;3.17;0.95;;;34.70;47.20;;;;;;5089126;28;20505;-65
2022/07/05 11:14:19;;;;;;;2.65;0.80;;;34.10;47.50;;;;;;5093379;28;20090;-65
2022/07/05 11:16:46;;;;;;;2.08;1.00;;;33.90;47.40;;;;;;5094828;28;20028;-65
2022/07/05 11:19:21;;;;;;;2.40;1.02;;;33.30;48.40;;;;;;5093348;28;20078;-65
2022/07/05 11:22:07;;;;;;;1.63;0.75;;;32.90;49.10;;;;;;5093164;28;20027;-64
2022/07/05 11:24:37;;;;;;;1.17;0.70;;;32.10;49.70;;;;;;5094466;28;20028;-65
2022/07/05 11:27:09;;;;;;;0.98;0.77;;;31.60;50.40;;;;;;5094543;28;20472;-65
2022/07/05 11:29:41;;;;;;;3.33;0.90;;;30.70;51.40;;;;;;5094813;28;20028;-65
2022/07/05 11:32:08;;;;;;;1.67;1.00;;;30.30;52.30;;;;;;5094476;28;20047;-63
2022/07/05 11:34:35;;;;;;;3.22;1.17;;;30.00;52.80;;;;;;5094489;28;20440;-64
2022/07/05 11:37:34;;;;;;;3.55;0.85;;;29.60;53.70;;;;;;5094404;28;20480;-64
2022/07/05 11:40:13;;;;;;;2.22;0.90;;;29.80;53.40;;;;;;5052269;28;20041;-64
2022/07/05 11:42:50;;;;;;;2.05;0.80;;;29.90;52.40;;;;;;5052584;28;20024;-65
2022/07/05 11:45:16;;;;;;;;;;;29.70;53.20;;;;;;5052360;28;20120;-64
2022/07/05 11:47:42;;;;;;;1.45;0.77;;;29.60;53.30;;;;;;5052005;28;19943;-64
2022/07/05 11:50:09;;;;;;;1.88;0.90;;;29.70;54.30;;;;;;5051790;28;20462;-64
2022/07/05 11:52:36;;;;;;;3.75;1.10;;;29.20;53.90;;;;;;5051656;28;20075;-64
2022/07/05 11:55:07;;;;;;;2.35;0.93;;;28.90;53.80;;;;;;5051796;28;20029;-65
2022/07/05 11:57:33;;;;;;;1.40;0.70;;;28.40;54.70;;;;;;5052219;28;20402;-64
2022/07/05 11:59:58;;;;;;;2.83;0.90;;;28.20;55.70;;;;;;5052500;28;20029;-65
2022/07/05 12:02:24;;;;;;;2.55;0.88;;;28.10;55.90;;;;;;5051950;28;20033;-64
2022/07/05 12:04:52;;;;;;;1.52;0.90;;;28.30;55.70;;;;;;5051461;28;20053;-65
2022/07/05 12:07:34;;;;;;;3.22;0.90;;;28.40;55.90;;;;;;5051844;28;20040;-64
2022/07/05 12:12:47;;;;;;;3.28;1.48;;;28.70;55.90;;;;;;5051713;28;20082;-65
2022/07/05 12:15:17;;;;;;;1.42;1.00;;;28.60;55.60;;;;;;5053721;28;20051;-65
2022/07/05 12:17:44;;;;;;;1.30;0.80;;;28.60;55.50;;;;;;5093669;28;20503;-66
2022/07/05 12:20:13;;;;;;;2.33;1.13;;;28.80;55.80;;;;;;5093851;28;20506;-65
2022/07/05 12:22:44;;;;;;;1.77;1.13;;;28.80;55.80;;;;;;5093904;28;20110;-64
2022/07/05 12:25:29;;;;;;;2.90;1.20;;;28.80;55.70;;;;;;5093755;28;20028;-64
2022/07/05 12:27:57;;;;;;;2.47;0.75;;;28.80;55.40;;;;;;5094112;28;20127;-67
2022/07/05 12:30:24;;;;;;;3.30;0.90;;;28.50;55.50;;;;;;5093982;28;20020;-66
2022/07/05 12:33:01;;;;;;;2.45;0.82;;;28.40;55.80;;;;;;5093898;28;20026;-65
2022/07/05 12:35:47;;;;;;;1.88;0.88;;;28.40;55.90;;;;;;5094058;28;20083;-65
2022/07/05 12:38:19;;;;;;;4.40;0.77;;;28.30;56.30;;;;;;5093666;28;20036;-66
2022/07/05 12:40:46;;;;;;;2.38;1.08;;;28.50;56.60;;;;;;5093608;28;20094;-66
2022/07/05 12:43:16;;;;;;;4.55;0.80;;;28.60;56.50;;;;;;5093705;28;20023;-66
2022/07/05 12:46:00;;;;;;;1.60;0.90;;;28.70;56.60;;;;;;5093534;28;20092;-66
2022/07/05 12:48:34;;;;;;;2.40;1.30;;;28.70;56.20;;;;;;5093713;28;20019;-65
2022/07/05 12:51:01;;;;;;;3.47;1.30;;;28.70;56.60;;;;;;5094317;28;20020;-66
2022/07/05 12:59:03;;;;;;;2.17;1.00;;;28.70;55.80;;;;;;5093947;28;20447;-65
2022/07/05 13:01:34;;;;;;;2.72;0.90;;;28.60;55.80;;;;;;5093258;28;20107;-66
2022/07/05 13:04:11;;;;;;;2.15;1.00;;;28.60;55.90;;;;;;5093074;28;20111;-66
2022/07/05 13:06:48;;;;;;;1.52;0.77;;;28.70;56.10;;;;;;5092864;28;20071;-65
2022/07/05 13:09:36;;;;;;;3.33;0.70;;;28.70;56.00;;;;;;5093027;28;20020;-66